Time;durP1;ratioP1;P1;durP2;ratioP2;P2;SDS_P1;SDS_P2;PMS_P1;PMS_P2;Temp;Humidity;BMP_temperature;BMP_pressure;BME280_temperature;BME280_humidity;BME280_pressure;Samples;Min_cycle;Max_cycle;Signal;HPM_P1;HPM_P2
2021/06/13 00:01:15;;;;;;;3.22;2.65;;;;;;;;;;4991050;28;20084;-69
2021/06/13 00:03:41;;;;;;;3.37;2.87;;;;;;;;;;4990951;28;20042;-69
2021/06/13 00:06:06;;;;;;;3.30;2.57;;;;;;;;;;4990979;28;20018;-68
2021/06/13 00:08:31;;;;;;;3.88;2.60;;;;;;;;;;4990319;28;20709;-69
2021/06/13 00:10:56;;;;;;;2.57;2.30;;;;;;;;;;4990741;28;20023;-69
2021/06/13 00:13:22;;;;;;;3.65;2.65;;;;;;;;;;4990295;28;20327;-69
2021/06/13 00:15:47;;;;;;;3.83;2.67;;;;;;;;;;4990496;28;20092;-69
2021/06/13 00:18:12;;;;;;;3.58;2.72;;;;;;;;;;4990559;28;20022;-70
2021/06/13 00:20:38;;;;;;;3.37;2.47;;;;;;;;;;4990330;28;20517;-69
2021/06/13 00:23:03;;;;;;;2.90;2.60;;;;;;;;;;4989721;28;20376;-69
2021/06/13 00:25:28;;;;;;;3.03;2.40;;;;;;;;;;4990547;28;20721;-69
2021/06/13 00:27:54;;;;;;;2.85;2.42;;;;;;;;;;4989416;28;20258;-69
2021/06/13 00:30:19;;;;;;;3.15;2.22;;;;;;;;;;4989756;28;20061;-69
2021/06/13 00:32:44;;;;;;;2.85;2.28;;;;;;;;;;4990318;28;20030;-69
2021/06/13 00:35:10;;;;;;;2.97;2.20;;;;;;;;;;4990397;28;20033;-69
2021/06/13 00:37:35;;;;;;;3.72;2.63;;;;;;;;;;4990309;28;20026;-69
2021/06/13 00:40:00;;;;;;;2.60;2.27;;;;;;;;;;4989887;28;20038;-69
2021/06/13 00:42:26;;;;;;;3.05;2.38;;;;;;;;;;4990181;28;20383;-69
2021/06/13 00:44:51;;;;;;;3.05;2.55;;;;;;;;;;4990058;28;20034;-69
2021/06/13 00:47:16;;;;;;;2.72;2.22;;;;;;;;;;4989940;28;20022;-69
2021/06/13 00:49:42;;;;;;;2.65;2.30;;;;;;;;;;4989683;28;20148;-69
2021/06/13 00:52:07;;;;;;;3.60;2.23;;;;;;;;;;4990398;28;20030;-69
2021/06/13 00:54:32;;;;;;;3.20;2.40;;;;;;;;;;4990954;28;20368;-69
2021/06/13 00:56:57;;;;;;;3.08;2.40;;;;;;;;;;5006413;28;20058;-69
2021/06/13 00:59:23;;;;;;;2.53;2.33;;;;;;;;;;4989569;28;20110;-69
2021/06/13 01:01:48;;;;;;;2.42;2.08;;;;;;;;;;4989577;28;20140;-69
2021/06/13 01:04:13;;;;;;;2.83;2.30;;;;;;;;;;5004757;28;20018;-69
2021/06/13 01:06:50;;;;;;;2.57;2.37;;;;;;;;;;4989653;28;20269;-69
2021/06/13 01:09:16;;;;;;;2.72;2.22;;;;;;;;;;4989392;28;20029;-69
2021/06/13 01:11:54;;;;;;;4.07;2.65;;;;;;;;;;5004688;28;20034;-69
2021/06/13 01:14:32;;;;;;;3.28;2.40;;;;;;;;;;4988615;28;20026;-69
2021/06/13 01:17:00;;;;;;;2.53;2.33;;;;;;;;;;4989014;28;20077;-69
2021/06/13 01:19:26;;;;;;;2.60;2.35;;;;;;;;;;4989531;28;20029;-69
2021/06/13 01:22:09;;;;;;;3.07;2.33;;;;;;;;;;4989275;28;20058;-69
2021/06/13 01:24:41;;;;;;;3.25;2.35;;;;;;;;;;4989392;28;20029;-69
2021/06/13 01:27:12;;;;;;;3.63;2.38;;;;;;;;;;5003662;28;20029;-69
2021/06/13 01:29:38;;;;;;;3.00;2.30;;;;;;;;;;4989031;28;20022;-69
2021/06/13 01:32:05;;;;;;;2.40;2.20;;;;;;;;;;4989093;28;20092;-69
2021/06/13 01:34:31;;;;;;;2.90;2.13;;;;;;;;;;4988707;28;20030;-69
2021/06/13 01:36:57;;;;;;;2.55;1.92;;;;;;;;;;4989385;28;20057;-69
2021/06/13 01:39:24;;;;;;;2.30;1.98;;;;;;;;;;5003588;28;20432;-68
2021/06/13 01:41:50;;;;;;;2.65;2.28;;;;;;;;;;5003919;28;20026;-68
2021/06/13 01:44:16;;;;;;;2.88;2.28;;;;;;;;;;4988894;28;20084;-69
2021/06/13 01:46:41;;;;;;;2.40;1.92;;;;;;;;;;4987587;28;20030;-68
2021/06/13 01:49:07;;;;;;;2.97;2.40;;;;;;;;;;4988524;28;20428;-68
2021/06/13 01:51:32;;;;;;;2.70;1.95;;;;;;;;;;4989078;28;20364;-69
2021/06/13 01:54:00;;;;;;;2.00;1.80;;;;;;;;;;4989110;28;20560;-69
2021/06/13 01:56:25;;;;;;;2.60;2.03;;;;;;;;;;4988790;28;20348;-69
2021/06/13 01:58:50;;;;;;;3.28;2.03;;;;;;;;;;4988491;28;20129;-69
2021/06/13 02:01:18;;;;;;;3.20;2.20;;;;;;;;;;4988744;28;20026;-68
2021/06/13 02:03:44;;;;;;;2.55;2.00;;;;;;;;;;4988454;28;20281;-68
2021/06/13 02:06:10;;;;;;;1.90;1.70;;;;;;;;;;4988578;28;20030;-69
2021/06/13 02:08:35;;;;;;;2.65;2.10;;;;;;;;;;5003744;28;20515;-68
2021/06/13 02:11:04;;;;;;;2.58;2.20;;;;;;;;;;5003405;28;20037;-69
2021/06/13 02:13:29;;;;;;;2.72;2.25;;;;;;;;;;4988064;28;20108;-69
2021/06/13 02:15:55;;;;;;;2.67;2.07;;;;;;;;;;4988620;28;20053;-69
2021/06/13 02:18:20;;;;;;;2.90;2.22;;;;;;;;;;4988361;28;20269;-68
2021/06/13 02:20:45;;;;;;;2.38;1.90;;;;;;;;;;5003070;28;20025;-68
2021/06/13 02:23:11;;;;;;;2.50;2.00;;;;;;;;;;4988256;28;20030;-69
2021/06/13 02:25:36;;;;;;;2.67;2.00;;;;;;;;;;4988368;28;20161;-69
2021/06/13 02:28:01;;;;;;;2.83;2.03;;;;;;;;;;4988482;28;20632;-68
2021/06/13 02:30:28;;;;;;;3.15;2.08;;;;;;;;;;4988342;28;20024;-69
2021/06/13 02:32:55;;;;;;;2.80;2.40;;;;;;;;;;5003706;28;20070;-68
2021/06/13 02:35:20;;;;;;;2.80;2.38;;;;;;;;;;5003154;28;20118;-68
2021/06/13 02:37:45;;;;;;;2.27;1.80;;;;;;;;;;4988519;28;20121;-69
2021/06/13 02:40:11;;;;;;;2.10;1.90;;;;;;;;;;5007059;28;20057;-68
2021/06/13 02:42:36;;;;;;;2.53;2.00;;;;;;;;;;4992256;28;20128;-69
2021/06/13 02:45:02;;;;;;;2.70;2.20;;;;;;;;;;5007200;28;20077;-69
2021/06/13 02:47:27;;;;;;;2.33;2.10;;;;;;;;;;4992501;28;20253;-68
2021/06/13 02:49:52;;;;;;;2.30;2.08;;;;;;;;;;5007114;28;20022;-69
2021/06/13 02:52:21;;;;;;;2.67;2.00;;;;;;;;;;5007454;28;20030;-69
2021/06/13 02:54:48;;;;;;;2.00;1.80;;;;;;;;;;4992305;28;20101;-69
2021/06/13 02:57:24;;;;;;;2.78;1.92;;;;;;;;;;4992974;28;20034;-69
2021/06/13 02:59:49;;;;;;;2.50;1.70;;;;;;;;;;4991654;28;20023;-68
2021/06/13 03:02:16;;;;;;;2.20;1.80;;;;;;;;;;5007011;28;20030;-69
2021/06/13 03:04:41;;;;;;;2.97;2.22;;;;;;;;;;5006684;28;20026;-69
2021/06/13 03:07:07;;;;;;;2.83;2.03;;;;;;;;;;5006948;28;20033;-69
2021/06/13 03:09:32;;;;;;;2.80;2.10;;;;;;;;;;4991599;28;20076;-69
2021/06/13 03:11:57;;;;;;;2.72;2.08;;;;;;;;;;5007118;28;20034;-69
2021/06/13 03:14:24;;;;;;;2.83;2.13;;;;;;;;;;4991756;28;20018;-69
2021/06/13 03:16:49;;;;;;;2.72;2.17;;;;;;;;;;4984486;28;20035;-68
2021/06/13 03:19:14;;;;;;;2.85;2.00;;;;;;;;;;4971770;28;20125;-69
2021/06/13 03:21:40;;;;;;;2.73;1.93;;;;;;;;;;4970471;28;20074;-69
2021/06/13 03:24:05;;;;;;;3.00;1.90;;;;;;;;;;4970789;28;20807;-69
2021/06/13 03:26:30;;;;;;;2.88;2.03;;;;;;;;;;4972273;28;20571;-69
2021/06/13 03:28:56;;;;;;;2.43;1.87;;;;;;;;;;4970589;28;20482;-69
2021/06/13 03:31:22;;;;;;;4.10;2.08;;;;;;;;;;4970603;28;20831;-68
2021/06/13 03:33:47;;;;;;;2.80;2.20;;;;;;;;;;4972131;28;20130;-68
2021/06/13 03:36:12;;;;;;;2.42;1.92;;;;;;;;;;4970738;28;20031;-68
2021/06/13 03:38:37;;;;;;;2.17;1.90;;;;;;;;;;4971074;28;20035;-69
2021/06/13 03:41:03;;;;;;;2.47;1.90;;;;;;;;;;4970357;28;20485;-69
2021/06/13 03:43:28;;;;;;;2.20;1.92;;;;;;;;;;4971474;28;20030;-69
2021/06/13 03:45:53;;;;;;;2.60;2.00;;;;;;;;;;4970621;28;20493;-68
2021/06/13 03:48:19;;;;;;;2.80;2.10;;;;;;;;;;4970310;28;20293;-68
2021/06/13 03:50:44;;;;;;;2.50;2.00;;;;;;;;;;4969534;28;20026;-69
2021/06/13 03:53:10;;;;;;;2.55;2.20;;;;;;;;;;4972035;28;20015;-68
2021/06/13 03:55:35;;;;;;;3.00;2.10;;;;;;;;;;4976965;28;20420;-69
2021/06/13 03:58:00;;;;;;;2.60;2.00;;;;;;;;;;4991063;28;20515;-68
2021/06/13 04:00:26;;;;;;;3.08;2.10;;;;;;;;;;4996017;28;20485;-67
2021/06/13 04:02:51;;;;;;;4.28;2.30;;;;;;;;;;4999725;28;20030;-68
2021/06/13 04:05:17;;;;;;;3.25;2.00;;;;;;;;;;4999387;28;20029;-68
2021/06/13 04:07:42;;;;;;;2.67;2.17;;;;;;;;;;5008483;28;20826;-68
2021/06/13 04:10:08;;;;;;;3.58;2.30;;;;;;;;;;5014878;28;20024;-68
2021/06/13 04:12:34;;;;;;;2.72;2.20;;;;;;;;;;5009191;28;20026;-69
2021/06/13 04:14:59;;;;;;;2.57;2.07;;;;;;;;;;5008100;28;20088;-68
2021/06/13 04:17:26;;;;;;;2.42;2.17;;;;;;;;;;5008119;28;20766;-68
2021/06/13 04:19:51;;;;;;;3.22;2.00;;;;;;;;;;5007786;28;20037;-68
2021/06/13 04:22:17;;;;;;;3.00;2.10;;;;;;;;;;5023897;28;20439;-68
2021/06/13 04:24:43;;;;;;;3.22;2.60;;;;;;;;;;4991629;28;20408;-69
2021/06/13 04:27:08;;;;;;;2.90;1.98;;;;;;;;;;4989938;28;20089;-70
2021/06/13 04:29:34;;;;;;;4.28;2.13;;;;;;;;;;4988795;28;20559;-71
2021/06/13 04:31:59;;;;;;;2.70;2.00;;;;;;;;;;4991999;28;20080;-71
2021/06/13 04:34:24;;;;;;;2.27;1.90;;;;;;;;;;4995444;28;20799;-70
2021/06/13 04:36:49;;;;;;;3.50;2.30;;;;;;;;;;4988786;28;20533;-67
2021/06/13 04:39:15;;;;;;;2.73;2.30;;;;;;;;;;4989463;28;20461;-68
2021/06/13 04:41:40;;;;;;;2.77;2.20;;;;;;;;;;4988972;28;20026;-68
2021/06/13 04:44:05;;;;;;;3.03;2.10;;;;;;;;;;4988914;28;20413;-68
2021/06/13 04:46:31;;;;;;;3.42;2.30;;;;;;;;;;4988880;28;20113;-68
2021/06/13 04:48:57;;;;;;;2.50;2.13;;;;;;;;;;4988736;28;20026;-68
2021/06/13 04:51:22;;;;;;;3.25;2.20;;;;;;;;;;4988232;28;20026;-67
2021/06/13 04:53:48;;;;;;;3.00;2.20;;;;;;;;;;4987641;28;20057;-66
2021/06/13 04:56:33;;;;;;;3.33;2.40;;;;;;;;;;4988568;28;20424;-68
2021/06/13 04:58:59;;;;;;;2.67;2.08;;;;;;;;;;4990727;28;20060;-69
2021/06/13 05:01:24;;;;;;;2.90;2.10;;;;;;;;;;4997598;28;20493;-69
2021/06/13 05:03:50;;;;;;;3.00;2.20;;;;;;;;;;4991505;28;20014;-69
2021/06/13 05:06:15;;;;;;;2.77;2.30;;;;;;;;;;4988464;28;20109;-69
2021/06/13 05:08:41;;;;;;;4.03;2.40;;;;;;;;;;4988075;28;20094;-68
2021/06/13 05:11:06;;;;;;;2.67;2.10;;;;;;;;;;4988480;28;20499;-68
2021/06/13 05:13:32;;;;;;;2.80;2.40;;;;;;;;;;4988976;28;20040;-68
2021/06/13 05:15:57;;;;;;;3.17;2.30;;;;;;;;;;4988975;28;20030;-67
2021/06/13 05:18:22;;;;;;;4.10;2.30;;;;;;;;;;4988970;28;20037;-68
2021/06/13 05:20:52;;;;;;;2.93;2.20;;;;;;;;;;4988050;28;20030;-71
2021/06/13 05:23:18;;;;;;;3.45;2.10;;;;;;;;;;4988384;28;20034;-65
2021/06/13 05:25:43;;;;;;;2.88;2.33;;;;;;;;;;5003483;28;20029;-69
2021/06/13 05:28:08;;;;;;;3.83;2.33;;;;;;;;;;4989109;28;20018;-70
2021/06/13 05:30:34;;;;;;;3.08;2.10;;;;;;;;;;4988134;28;20010;-69
2021/06/13 05:32:59;;;;;;;2.83;2.43;;;;;;;;;;4988716;28;20026;-70
2021/06/13 05:35:24;;;;;;;2.42;2.15;;;;;;;;;;4988894;28;20285;-69
2021/06/13 05:37:50;;;;;;;3.03;2.60;;;;;;;;;;4999059;28;20030;-69
2021/06/13 05:40:18;;;;;;;6.10;2.13;;;;;;;;;;4988284;28;20029;-68
2021/06/13 05:42:44;;;;;;;6.07;2.33;;;;;;;;;;4988315;28;20515;-69
2021/06/13 05:45:10;;;;;;;4.15;2.10;;;;;;;;;;4988046;28;20022;-69
2021/06/13 05:47:35;;;;;;;2.58;2.08;;;;;;;;;;4988496;28;20109;-69
2021/06/13 05:50:00;;;;;;;2.78;2.10;;;;;;;;;;4987617;28;20412;-68
2021/06/13 05:52:25;;;;;;;3.13;1.90;;;;;;;;;;4988300;28;20030;-69
2021/06/13 05:54:51;;;;;;;4.20;2.40;;;;;;;;;;4988301;28;20121;-68
2021/06/13 05:57:17;;;;;;;6.25;2.30;;;;;;;;;;4987367;28;20281;-68
2021/06/13 05:59:42;;;;;;;3.78;2.38;;;;;;;;;;4986327;28;20488;-69
2021/06/13 06:02:07;;;;;;;3.90;2.40;;;;;;;;;;4987579;28;20030;-68
2021/06/13 06:04:33;;;;;;;3.40;2.30;;;;;;;;;;4988717;28;20265;-68
2021/06/13 06:06:58;;;;;;;3.47;2.53;;;;;;;;;;4986732;28;20320;-68
2021/06/13 06:09:24;;;;;;;4.07;2.17;;;;;;;;;;4987886;28;20027;-68
2021/06/13 06:11:49;;;;;;;3.30;2.50;;;;;;;;;;4987816;28;20531;-68
2021/06/13 06:14:14;;;;;;;3.83;2.25;;;;;;;;;;5002373;28;20015;-68
2021/06/13 06:16:39;;;;;;;2.87;2.27;;;;;;;;;;4987639;28;20420;-70
2021/06/13 06:19:05;;;;;;;3.43;2.23;;;;;;;;;;4987382;28;20280;-68
2021/06/13 06:21:30;;;;;;;3.47;2.30;;;;;;;;;;4987328;28;20035;-69
2021/06/13 06:23:56;;;;;;;3.83;2.33;;;;;;;;;;4987658;28;20042;-68
2021/06/13 06:26:21;;;;;;;3.20;2.30;;;;;;;;;;5002576;28;20823;-67
2021/06/13 06:28:46;;;;;;;4.13;2.47;;;;;;;;;;4987603;28;20273;-69
2021/06/13 06:31:12;;;;;;;4.50;2.65;;;;;;;;;;4986331;28;20084;-71
2021/06/13 06:33:37;;;;;;;4.25;2.33;;;;;;;;;;4987418;28;20034;-70
2021/06/13 06:36:03;;;;;;;3.63;2.47;;;;;;;;;;4987191;28;20026;-74
2021/06/13 06:38:28;;;;;;;3.15;2.50;;;;;;;;;;4987813;28;20555;-71
2021/06/13 06:40:54;;;;;;;3.40;2.38;;;;;;;;;;4987554;28;20448;-72
2021/06/13 06:43:19;;;;;;;3.88;2.50;;;;;;;;;;4989727;28;20023;-69
2021/06/13 06:45:44;;;;;;;3.25;2.30;;;;;;;;;;4987284;28;20011;-70
2021/06/13 06:48:09;;;;;;;4.63;2.47;;;;;;;;;;4987530;28;20014;-69
2021/06/13 06:50:35;;;;;;;4.18;2.30;;;;;;;;;;4986970;28;20014;-69
2021/06/13 06:53:00;;;;;;;3.75;2.35;;;;;;;;;;4986684;28;20125;-68
2021/06/13 06:55:25;;;;;;;4.23;2.73;;;;;;;;;;4986777;28;20033;-69
2021/06/13 06:57:51;;;;;;;4.40;2.60;;;;;;;;;;4986891;28;20019;-68
2021/06/13 07:00:17;;;;;;;3.55;2.55;;;;;;;;;;4985799;28;20035;-68
2021/06/13 07:02:42;;;;;;;4.20;2.35;;;;;;;;;;4986426;28;20077;-68
2021/06/13 07:05:08;;;;;;;4.78;2.60;;;;;;;;;;4985833;28;20019;-69
2021/06/13 07:07:33;;;;;;;4.78;2.65;;;;;;;;;;4986315;28;20545;-68
2021/06/13 07:09:58;;;;;;;4.90;2.63;;;;;;;;;;4986183;28;20026;-68
2021/06/13 07:12:25;;;;;;;5.47;3.05;;;;;;;;;;4986591;28;20022;-68
2021/06/13 07:14:50;;;;;;;4.75;2.70;;;;;;;;;;4986919;28;20267;-67
2021/06/13 07:17:16;;;;;;;3.47;2.53;;;;;;;;;;4988250;28;20104;-68
2021/06/13 07:19:41;;;;;;;6.95;3.05;;;;;;;;;;4986416;28;20037;-67
2021/06/13 07:22:06;;;;;;;3.43;2.50;;;;;;;;;;4985971;28;20050;-67
2021/06/13 07:24:32;;;;;;;6.33;2.83;;;;;;;;;;4989277;28;20038;-70
2021/06/13 07:26:57;;;;;;;4.05;2.63;;;;;;;;;;4990342;28;20718;-69
2021/06/13 07:29:22;;;;;;;5.57;3.20;;;;;;;;;;4992130;28;20480;-69
2021/06/13 07:31:47;;;;;;;4.40;2.93;;;;;;;;;;4989861;28;20476;-69
2021/06/13 07:34:13;;;;;;;5.38;2.67;;;;;;;;;;4993234;28;20268;-69
2021/06/13 07:36:38;;;;;;;4.43;2.90;;;;;;;;;;4988105;28;20026;-68
2021/06/13 07:39:04;;;;;;;3.67;2.77;;;;;;;;;;4989824;28;20818;-67
2021/06/13 07:41:29;;;;;;;5.25;3.15;;;;;;;;;;4991379;28;20284;-68
2021/06/13 07:43:54;;;;;;;4.57;2.97;;;;;;;;;;4987754;28;20036;-69
2021/06/13 07:46:19;;;;;;;4.77;2.63;;;;;;;;;;4989275;28;20019;-69
2021/06/13 07:48:45;;;;;;;5.28;2.92;;;;;;;;;;4992999;28;20300;-68
2021/06/13 07:51:10;;;;;;;3.80;2.90;;;;;;;;;;4989994;28;20057;-69
2021/06/13 07:53:35;;;;;;;4.80;3.00;;;;;;;;;;4992188;28;20274;-69
2021/06/13 07:56:01;;;;;;;7.03;3.50;;;;;;;;;;4989486;28;20030;-69
2021/06/13 07:58:26;;;;;;;4.47;3.43;;;;;;;;;;4989866;28;20030;-70
2021/06/13 08:00:51;;;;;;;5.80;3.47;;;;;;;;;;5004001;28;20296;-70
2021/06/13 08:03:17;;;;;;;4.47;3.20;;;;;;;;;;4989973;28;20343;-70
2021/06/13 08:05:43;;;;;;;5.57;2.97;;;;;;;;;;4991257;28;20113;-70
2021/06/13 08:08:10;;;;;;;4.75;3.10;;;;;;;;;;4989220;28;20029;-71
2021/06/13 08:10:35;;;;;;;5.82;3.53;;;;;;;;;;4987012;28;20022;-70
2021/06/13 08:13:00;;;;;;;6.57;3.60;;;;;;;;;;4989760;28;20041;-70
2021/06/13 08:15:25;;;;;;;6.13;3.45;;;;;;;;;;4990157;28;20417;-70
2021/06/13 08:17:51;;;;;;;6.22;3.80;;;;;;;;;;4990070;28;20393;-70
2021/06/13 08:20:16;;;;;;;5.90;3.65;;;;;;;;;;4989908;28;20030;-69
2021/06/13 08:22:41;;;;;;;5.75;3.67;;;;;;;;;;4989487;28;20082;-70
2021/06/13 08:25:07;;;;;;;5.65;3.65;;;;;;;;;;4989754;28;20081;-70
2021/06/13 08:27:32;;;;;;;5.97;3.97;;;;;;;;;;4989759;28;20029;-70
2021/06/13 08:29:58;;;;;;;5.97;3.87;;;;;;;;;;4987804;28;20034;-71
2021/06/13 08:32:24;;;;;;;7.38;3.97;;;;;;;;;;4987862;28;20301;-71
2021/06/13 08:34:52;;;;;;;7.00;4.50;;;;;;;;;;4988178;28;20046;-71
2021/06/13 08:37:17;;;;;;;10.75;4.88;;;;;;;;;;4987380;28;20127;-71
2021/06/13 08:39:42;;;;;;;29.95;6.78;;;;;;;;;;4986088;28;20058;-70
2021/06/13 08:42:08;;;;;;;12.38;4.75;;;;;;;;;;4988325;28;20038;-71
2021/06/13 08:44:33;;;;;;;10.35;4.50;;;;;;;;;;4988786;28;20397;-71
2021/06/13 08:46:58;;;;;;;8.15;5.22;;;;;;;;;;4984733;28;20687;-70
2021/06/13 08:49:24;;;;;;;8.30;4.67;;;;;;;;;;4996421;28;20022;-70
2021/06/13 08:51:49;;;;;;;11.38;4.90;;;;;;;;;;4989039;28;20278;-71
2021/06/13 08:54:14;;;;;;;9.93;5.32;;;;;;;;;;4989514;28;20520;-70
2021/06/13 08:56:41;;;;;;;8.07;5.20;;;;;;;;;;4988600;28;20042;-70
2021/06/13 08:59:06;;;;;;;7.03;5.30;;;;;;;;;;4989433;28;20105;-71
2021/06/13 09:01:31;;;;;;;7.32;5.15;;;;;;;;;;4988599;28;20113;-70
2021/06/13 09:03:56;;;;;;;8.40;5.33;;;;;;;;;;4988133;28;20030;-71
2021/06/13 09:06:22;;;;;;;7.00;5.37;;;;;;;;;;4988870;28;20813;-70
2021/06/13 09:08:47;;;;;;;7.20;5.43;;;;;;;;;;4988687;28;20485;-71
2021/06/13 09:11:29;;;;;;;6.72;5.15;;;;;;;;;;4988660;28;20386;-70
2021/06/13 09:13:55;;;;;;;7.40;5.40;;;;;;;;;;4989321;28;20048;-70
2021/06/13 09:16:27;;;;;;;7.40;5.40;;;;;;;;;;4988814;28;20117;-70
2021/06/13 09:18:53;;;;;;;7.93;5.22;;;;;;;;;;4989163;28;20026;-70
2021/06/13 09:21:25;;;;;;;6.15;5.35;;;;;;;;;;4988681;28;20050;-70
2021/06/13 09:23:50;;;;;;;8.70;5.90;;;;;;;;;;4988587;28;20026;-70
2021/06/13 09:26:17;;;;;;;5.83;5.23;;;;;;;;;;4988618;28;20489;-70
2021/06/13 09:28:44;;;;;;;8.57;4.97;;;;;;;;;;4988612;28;20049;-70
2021/06/13 09:31:13;;;;;;;7.50;5.03;;;;;;;;;;4989087;28;20030;-70
2021/06/13 09:33:38;;;;;;;6.38;5.15;;;;;;;;;;4990276;28;20032;-70
2021/06/13 09:36:04;;;;;;;7.93;4.95;;;;;;;;;;4987995;28;20035;-70
2021/06/13 09:38:30;;;;;;;5.70;5.13;;;;;;;;;;4988623;28;20026;-70
2021/06/13 09:40:57;;;;;;;5.10;4.60;;;;;;;;;;5004174;28;20452;-70
2021/06/13 09:43:25;;;;;;;6.43;4.75;;;;;;;;;;4988895;28;20030;-70
2021/06/13 09:45:52;;;;;;;6.85;4.93;;;;;;;;;;4989091;28;20046;-69
2021/06/13 09:48:17;;;;;;;6.65;4.60;;;;;;;;;;5002838;28;20034;-70
2021/06/13 09:50:43;;;;;;;6.43;5.40;;;;;;;;;;4988584;28;20058;-70
2021/06/13 09:53:22;;;;;;;6.03;4.35;;;;;;;;;;4988474;28;20101;-70
2021/06/13 09:55:48;;;;;;;6.60;4.82;;;;;;;;;;4988971;28;20034;-70
2021/06/13 09:58:14;;;;;;;5.78;4.30;;;;;;;;;;5003489;28;20041;-69
2021/06/13 10:00:40;;;;;;;4.53;4.03;;;;;;;;;;4988561;28;20030;-69
2021/06/13 10:03:21;;;;;;;5.50;4.18;;;;;;;;;;4988367;28;20022;-70
2021/06/13 10:05:53;;;;;;;5.70;4.40;;;;;;;;;;4975552;28;20030;-70
2021/06/13 10:08:19;;;;;;;5.88;4.15;;;;;;;;;;4988240;28;20172;-69
2021/06/13 10:10:44;;;;;;;6.37;4.37;;;;;;;;;;4988594;28;20108;-70
2021/06/13 10:13:09;;;;;;;5.10;4.18;;;;;;;;;;4988683;28;20261;-70
2021/06/13 10:15:35;;;;;;;4.85;3.75;;;;;;;;;;4988268;28;20401;-70
2021/06/13 10:18:10;;;;;;;4.47;3.60;;;;;;;;;;4988507;28;20069;-74
2021/06/13 10:20:36;;;;;;;5.20;3.85;;;;;;;;;;4988212;28;20034;-72
2021/06/13 10:23:01;;;;;;;5.73;3.93;;;;;;;;;;5003377;28;20050;-72
2021/06/13 10:25:26;;;;;;;9.50;5.97;;;;;;;;;;5003472;28;20895;-71
2021/06/13 10:27:51;;;;;;;5.70;4.30;;;;;;;;;;5008613;28;20265;-72
2021/06/13 10:30:17;;;;;;;6.45;4.15;;;;;;;;;;4997004;28;20018;-75
2021/06/13 10:33:00;;;;;;;6.88;4.32;;;;;;;;;;4986783;28;20026;-72
2021/06/13 10:35:25;;;;;;;5.43;3.53;;;;;;;;;;4986741;28;20078;-69
2021/06/13 10:37:51;;;;;;;5.47;3.80;;;;;;;;;;4987196;28;20045;-72
2021/06/13 10:40:16;;;;;;;4.47;3.33;;;;;;;;;;4984778;28;20022;-73
2021/06/13 10:42:41;;;;;;;4.47;3.35;;;;;;;;;;4986861;28;20046;-71
2021/06/13 10:45:07;;;;;;;3.77;2.90;;;;;;;;;;4986869;28;20027;-72
2021/06/13 10:47:33;;;;;;;3.40;2.90;;;;;;;;;;4985576;28;20273;-71
2021/06/13 10:50:03;;;;;;;3.13;2.83;;;;;;;;;;4988850;28;20034;-72
2021/06/13 10:52:28;;;;;;;4.68;3.30;;;;;;;;;;4987952;28;20025;-73
2021/06/13 10:54:58;;;;;;;5.30;3.47;;;;;;;;;;4987373;28;20030;-70
2021/06/13 10:57:24;;;;;;;7.80;4.80;;;;;;;;;;4988063;28;20356;-68
2021/06/13 10:59:50;;;;;;;5.65;3.60;;;;;;;;;;4987514;28;20021;-68
2021/06/13 11:02:18;;;;;;;5.20;3.35;;;;;;;;;;4990669;28;20101;-69
2021/06/13 11:04:44;;;;;;;6.13;4.65;;;;;;;;;;4990892;28;20033;-70
2021/06/13 11:07:10;;;;;;;4.35;3.45;;;;;;;;;;4993552;28;20022;-69
2021/06/13 11:09:54;;;;;;;3.35;2.80;;;;;;;;;;4990084;28;20524;-69
2021/06/13 11:12:38;;;;;;;4.03;3.45;;;;;;;;;;4988864;28;20424;-70
2021/06/13 11:15:03;;;;;;;4.20;3.47;;;;;;;;;;4990586;28;20029;-73
2021/06/13 11:17:48;;;;;;;4.32;3.17;;;;;;;;;;4989678;28;20025;-72
2021/06/13 11:22:57;;;;;;;4.65;3.20;;;;;;;;;;4982641;28;20106;-73
2021/06/13 11:25:25;;;;;;;4.35;3.10;;;;;;;;;;4996935;28;20026;-73
2021/06/13 11:28:14;;;;;;;3.72;3.00;;;;;;;;;;4989002;28;20863;-74
2021/06/13 11:30:42;;;;;;;7.15;2.85;;;;;;;;;;4990240;28;20055;-73
2021/06/13 11:33:07;;;;;;;3.42;2.40;;;;;;;;;;4983265;28;20113;-71
2021/06/13 11:35:36;;;;;;;2.90;2.40;;;;;;;;;;4987834;28;20034;-72
2021/06/13 11:38:14;;;;;;;2.60;2.20;;;;;;;;;;4984321;28;20030;-71
2021/06/13 11:40:49;;;;;;;2.78;2.10;;;;;;;;;;4987533;28;20034;-72
2021/06/13 11:43:15;;;;;;;2.63;2.00;;;;;;;;;;4988400;28;20078;-72
2021/06/13 11:46:06;;;;;;;2.70;2.00;;;;;;;;;;4988525;28;20460;-77
2021/06/13 11:48:34;;;;;;;3.00;2.08;;;;;;;;;;4987157;28;20053;-72
2021/06/13 11:51:13;;;;;;;3.20;2.33;;;;;;;;;;5002411;28;20563;-75
2021/06/13 11:53:57;;;;;;;2.38;2.08;;;;;;;;;;4987483;28;20096;-73
2021/06/13 11:56:35;;;;;;;2.35;1.83;;;;;;;;;;4986777;28;20475;-73
2021/06/13 11:59:00;;;;;;;2.35;1.98;;;;;;;;;;4987571;28;20193;-72
2021/06/13 12:01:25;;;;;;;2.33;1.90;;;;;;;;;;4987408;28;20582;-71
2021/06/13 12:03:51;;;;;;;2.67;2.00;;;;;;;;;;4989113;28;20121;-72
2021/06/13 12:06:18;;;;;;;2.75;1.90;;;;;;;;;;4988249;28;20029;-71
2021/06/13 12:08:44;;;;;;;3.67;2.33;;;;;;;;;;4987310;28;20051;-72
2021/06/13 12:11:09;;;;;;;2.70;1.77;;;;;;;;;;4987548;28;20033;-71
2021/06/13 12:13:34;;;;;;;2.20;1.98;;;;;;;;;;5002154;28;20026;-73
2021/06/13 12:15:59;;;;;;;2.72;2.00;;;;;;;;;;4987103;28;20027;-73
2021/06/13 12:18:25;;;;;;;2.40;2.00;;;;;;;;;;4984249;28;20026;-68
2021/06/13 12:21:00;;;;;;;2.83;1.90;;;;;;;;;;5000098;28;20023;-68
2021/06/13 12:23:33;;;;;;;2.30;2.05;;;;;;;;;;4986296;28;20036;-67
2021/06/13 12:29:01;;;;;;;3.30;1.90;;;;;;;;;;4945643;29;20479;-67
2021/06/13 12:31:27;;;;;;;2.53;1.95;;;;;;;;;;4945134;29;20178;-66
2021/06/13 12:33:52;;;;;;;2.95;2.28;;;;;;;;;;4964414;28;20045;-66
2021/06/13 12:36:17;;;;;;;2.50;1.80;;;;;;;;;;4987658;28;20481;-66
2021/06/13 12:38:43;;;;;;;3.70;2.10;;;;;;;;;;4987198;28;20505;-67
2021/06/13 12:41:08;;;;;;;2.78;2.03;;;;;;;;;;4987202;28;20508;-66
2021/06/13 12:43:37;;;;;;;3.67;2.28;;;;;;;;;;4987399;28;20080;-67
2021/06/13 12:46:03;;;;;;;3.00;2.00;;;;;;;;;;4986906;28;20031;-66
2021/06/13 12:48:29;;;;;;;2.63;2.38;;;;;;;;;;4987720;28;20265;-67
2021/06/13 12:50:54;;;;;;;2.88;2.40;;;;;;;;;;4989134;28;20554;-66
2021/06/13 12:53:19;;;;;;;2.72;2.40;;;;;;;;;;4990105;28;20113;-66
2021/06/13 12:55:50;;;;;;;2.87;2.37;;;;;;;;;;4990693;28;20037;-67
2021/06/13 12:58:17;;;;;;;3.88;2.33;;;;;;;;;;4992067;28;20022;-66
2021/06/13 13:00:42;;;;;;;3.83;2.50;;;;;;;;;;4990313;28;20564;-67
2021/06/13 13:03:07;;;;;;;4.72;2.75;;;;;;;;;;4988097;28;20029;-68
2021/06/13 13:05:33;;;;;;;3.17;2.30;;;;;;;;;;4987304;28;20046;-68
2021/06/13 13:08:14;;;;;;;3.03;2.58;;;;;;;;;;4986999;28;20088;-68
2021/06/13 13:10:39;;;;;;;2.85;2.40;;;;;;;;;;4985723;28;20019;-67
2021/06/13 13:13:06;;;;;;;3.65;2.60;;;;;;;;;;4985913;28;20493;-69
2021/06/13 13:15:32;;;;;;;4.25;2.95;;;;;;;;;;4985579;28;20030;-68
2021/06/13 13:18:11;;;;;;;3.20;2.90;;;;;;;;;;4987117;28;20493;-71
2021/06/13 13:20:36;;;;;;;3.47;2.92;;;;;;;;;;4986003;28;20146;-69
2021/06/13 13:23:13;;;;;;;3.20;2.90;;;;;;;;;;4987062;28;20664;-68
2021/06/13 13:25:39;;;;;;;3.05;2.75;;;;;;;;;;4987881;28;20019;-68
2021/06/13 13:28:23;;;;;;;2.95;2.63;;;;;;;;;;4987630;28;20030;-69
2021/06/13 13:30:52;;;;;;;4.18;3.08;;;;;;;;;;4986007;28;20018;-69
2021/06/13 13:33:26;;;;;;;5.38;2.90;;;;;;;;;;4986197;28;20036;-68
2021/06/13 13:35:51;;;;;;;5.63;2.83;;;;;;;;;;4987371;28;20030;-67
2021/06/13 13:38:18;;;;;;;3.10;2.80;;;;;;;;;;4987422;28;20036;-67
2021/06/13 13:40:43;;;;;;;4.00;3.05;;;;;;;;;;4986343;28;20026;-70
2021/06/13 13:43:12;;;;;;;3.70;3.17;;;;;;;;;;5002280;28;20412;-69
2021/06/13 13:45:38;;;;;;;3.35;3.05;;;;;;;;;;4986974;28;20018;-68
2021/06/13 13:48:07;;;;;;;3.70;3.10;;;;;;;;;;4986278;28;20072;-70
2021/06/13 13:50:36;;;;;;;3.80;2.88;;;;;;;;;;4986645;28;20019;-70
2021/06/13 13:53:13;;;;;;;3.20;2.90;;;;;;;;;;4985933;28;20109;-68
2021/06/13 13:55:49;;;;;;;3.42;3.13;;;;;;;;;;4986011;28;20394;-69
2021/06/13 13:58:15;;;;;;;3.17;2.88;;;;;;;;;;5001505;28;20023;-68
2021/06/13 14:00:40;;;;;;;3.25;2.90;;;;;;;;;;4985651;28;20053;-67
2021/06/13 14:03:05;;;;;;;4.78;3.17;;;;;;;;;;4985614;28;20073;-68
2021/06/13 14:05:31;;;;;;;4.38;3.20;;;;;;;;;;4985669;28;20030;-68
2021/06/13 14:07:56;;;;;;;3.83;3.00;;;;;;;;;;4984564;28;20038;-68
2021/06/13 14:10:21;;;;;;;3.27;2.97;;;;;;;;;;4984913;28;20859;-70
2021/06/13 14:12:47;;;;;;;7.05;3.58;;;;;;;;;;4986371;28;20113;-70
2021/06/13 14:15:13;;;;;;;4.53;3.37;;;;;;;;;;4984641;28;20022;-68
2021/06/13 14:17:38;;;;;;;3.40;3.10;;;;;;;;;;4986185;28;20835;-69
2021/06/13 14:20:06;;;;;;;3.73;3.33;;;;;;;;;;4986248;28;20076;-71
2021/06/13 14:22:31;;;;;;;3.70;3.40;;;;;;;;;;4985647;28;20061;-69
2021/06/13 14:24:56;;;;;;;3.40;3.00;;;;;;;;;;5001419;28;20018;-70
2021/06/13 14:27:22;;;;;;;4.43;4.03;;;;;;;;;;4987117;28;20023;-70
2021/06/13 14:29:47;;;;;;;6.07;3.53;;;;;;;;;;4987200;28;20026;-71
2021/06/13 14:32:12;;;;;;;5.63;3.77;;;;;;;;;;4986955;28;20023;-71
2021/06/13 14:34:37;;;;;;;4.83;3.67;;;;;;;;;;5002711;28;20341;-67
2021/06/13 14:37:03;;;;;;;4.93;3.80;;;;;;;;;;4988346;28;20019;-67
2021/06/13 14:39:28;;;;;;;4.38;3.80;;;;;;;;;;4986632;28;20019;-69
2021/06/13 14:41:53;;;;;;;3.90;3.50;;;;;;;;;;4986557;28;20042;-70
2021/06/13 14:44:19;;;;;;;4.30;3.90;;;;;;;;;;4987727;28;20018;-69
2021/06/13 14:46:44;;;;;;;4.30;3.63;;;;;;;;;;4987497;28;20285;-69